sensor_id;sensor_type;location;lat;lon;timestamp;temperature;humidity
11772;DHT22;12556;55.748;13.194;2023-11-21T00:02:07;3.90;99.90
11772;DHT22;12556;55.748;13.194;2023-11-21T00:04:34;3.90;99.90
11772;DHT22;12556;55.748;13.194;2023-11-21T00:07:02;3.80;99.90
11772;DHT22;12556;55.748;13.194;2023-11-21T00:09:29;3.80;99.90
11772;DHT22;12556;55.748;13.194;2023-11-21T00:11:56;3.70;99.90
11772;DHT22;12556;55.748;13.194;2023-11-21T00:14:24;3.60;99.90
11772;DHT22;12556;55.748;13.194;2023-11-21T00:16:51;3.60;99.90
11772;DHT22;12556;55.748;13.194;2023-11-21T00:19:18;3.60;99.90
11772;DHT22;12556;55.748;13.194;2023-11-21T00:21:45;3.60;99.90
11772;DHT22;12556;55.748;13.194;2023-11-21T00:24:13;3.50;99.90
11772;DHT22;12556;55.748;13.194;2023-11-21T00:26:40;3.50;99.90
11772;DHT22;12556;55.748;13.194;2023-11-21T00:29:06;3.40;99.90
11772;DHT22;12556;55.748;13.194;2023-11-21T00:31:34;3.40;99.90
11772;DHT22;12556;55.748;13.194;2023-11-21T00:34:02;3.40;99.90
11772;DHT22;12556;55.748;13.194;2023-11-21T00:36:29;3.30;99.90
11772;DHT22;12556;55.748;13.194;2023-11-21T00:38:55;3.30;99.90
11772;DHT22;12556;55.748;13.194;2023-11-21T00:41:24;3.20;99.90
11772;DHT22;12556;55.748;13.194;2023-11-21T00:43:53;3.20;99.90
11772;DHT22;12556;55.748;13.194;2023-11-21T00:46:20;3.10;99.90
11772;DHT22;12556;55.748;13.194;2023-11-21T00:48:47;3.10;99.90
11772;DHT22;12556;55.748;13.194;2023-11-21T00:51:14;3.10;99.90
11772;DHT22;12556;55.748;13.194;2023-11-21T00:53:41;3.00;99.90
11772;DHT22;12556;55.748;13.194;2023-11-21T00:56:08;3.00;99.90
11772;DHT22;12556;55.748;13.194;2023-11-21T00:58:36;3.00;99.90
11772;DHT22;12556;55.748;13.194;2023-11-21T01:01:03;2.90;99.90
11772;DHT22;12556;55.748;13.194;2023-11-21T01:03:30;2.90;99.90
11772;DHT22;12556;55.748;13.194;2023-11-21T01:05:57;2.90;99.90
11772;DHT22;12556;55.748;13.194;2023-11-21T01:08:24;2.90;99.90
11772;DHT22;12556;55.748;13.194;2023-11-21T01:10:51;2.80;99.90
11772;DHT22;12556;55.748;13.194;2023-11-21T01:13:18;2.80;99.90
11772;DHT22;12556;55.748;13.194;2023-11-21T01:15:46;2.90;99.90
11772;DHT22;12556;55.748;13.194;2023-11-21T01:18:13;2.90;99.90
11772;DHT22;12556;55.748;13.194;2023-11-21T01:20:39;2.90;99.90
11772;DHT22;12556;55.748;13.194;2023-11-21T01:23:06;2.80;99.90
11772;DHT22;12556;55.748;13.194;2023-11-21T01:25:33;2.80;99.90
11772;DHT22;12556;55.748;13.194;2023-11-21T01:28:00;2.80;99.90
11772;DHT22;12556;55.748;13.194;2023-11-21T01:30:27;2.80;99.90
11772;DHT22;12556;55.748;13.194;2023-11-21T01:32:55;2.80;99.90
11772;DHT22;12556;55.748;13.194;2023-11-21T01:35:22;2.80;99.90
11772;DHT22;12556;55.748;13.194;2023-11-21T01:37:49;2.80;99.90
11772;DHT22;12556;55.748;13.194;2023-11-21T01:40:16;2.80;99.90
11772;DHT22;12556;55.748;13.194;2023-11-21T01:42:43;2.90;99.90
11772;DHT22;12556;55.748;13.194;2023-11-21T01:45:10;2.90;99.90
11772;DHT22;12556;55.748;13.194;2023-11-21T01:47:38;2.90;99.90
11772;DHT22;12556;55.748;13.194;2023-11-21T01:50:08;2.90;99.90
11772;DHT22;12556;55.748;13.194;2023-11-21T01:52:38;2.90;99.90
11772;DHT22;12556;55.748;13.194;2023-11-21T01:55:07;3.00;99.90
11772;DHT22;12556;55.748;13.194;2023-11-21T01:57:35;3.00;99.90
11772;DHT22;12556;55.748;13.194;2023-11-21T02:00:04;3.00;99.90
11772;DHT22;12556;55.748;13.194;2023-11-21T02:02:41;3.00;99.90
11772;DHT22;12556;55.748;13.194;2023-11-21T02:05:10;3.10;99.90
11772;DHT22;12556;55.748;13.194;2023-11-21T02:07:38;3.10;99.90
11772;DHT22;12556;55.748;13.194;2023-11-21T02:10:06;3.10;99.90
11772;DHT22;12556;55.748;13.194;2023-11-21T02:12:33;3.10;99.90
11772;DHT22;12556;55.748;13.194;2023-11-21T02:15:00;3.10;99.90
11772;DHT22;12556;55.748;13.194;2023-11-21T02:17:28;3.10;99.90
11772;DHT22;12556;55.748;13.194;2023-11-21T02:19:55;3.10;99.90
11772;DHT22;12556;55.748;13.194;2023-11-21T02:22:24;3.10;99.90
11772;DHT22;12556;55.748;13.194;2023-11-21T02:24:53;3.20;99.90
11772;DHT22;12556;55.748;13.194;2023-11-21T02:27:20;3.20;99.90
11772;DHT22;12556;55.748;13.194;2023-11-21T02:29:49;3.20;99.90
11772;DHT22;12556;55.748;13.194;2023-11-21T02:32:14;3.20;99.90
11772;DHT22;12556;55.748;13.194;2023-11-21T02:34:44;3.20;99.90
11772;DHT22;12556;55.748;13.194;2023-11-21T02:37:11;3.20;99.90
11772;DHT22;12556;55.748;13.194;2023-11-21T02:39:38;3.20;99.90
11772;DHT22;12556;55.748;13.194;2023-11-21T02:42:06;3.20;99.90
11772;DHT22;12556;55.748;13.194;2023-11-21T02:44:33;3.20;99.90
11772;DHT22;12556;55.748;13.194;2023-11-21T02:47:01;3.20;99.90
11772;DHT22;12556;55.748;13.194;2023-11-21T02:49:28;3.20;99.90
11772;DHT22;12556;55.748;13.194;2023-11-21T02:51:56;3.20;99.90
11772;DHT22;12556;55.748;13.194;2023-11-21T02:54:23;3.20;99.90
11772;DHT22;12556;55.748;13.194;2023-11-21T02:56:50;3.20;99.90
11772;DHT22;12556;55.748;13.194;2023-11-21T02:59:18;3.30;99.90
11772;DHT22;12556;55.748;13.194;2023-11-21T03:01:45;3.30;99.90
11772;DHT22;12556;55.748;13.194;2023-11-21T03:04:12;3.30;99.90
11772;DHT22;12556;55.748;13.194;2023-11-21T03:06:43;3.30;99.90
11772;DHT22;12556;55.748;13.194;2023-11-21T03:09:10;3.30;99.90
11772;DHT22;12556;55.748;13.194;2023-11-21T03:11:37;3.30;99.90
11772;DHT22;12556;55.748;13.194;2023-11-21T03:14:04;3.30;99.90
11772;DHT22;12556;55.748;13.194;2023-11-21T03:16:33;3.40;99.90
11772;DHT22;12556;55.748;13.194;2023-11-21T03:19:00;3.40;99.90
11772;DHT22;12556;55.748;13.194;2023-11-21T03:21:26;3.40;99.90
11772;DHT22;12556;55.748;13.194;2023-11-21T03:23:54;3.40;99.90
11772;DHT22;12556;55.748;13.194;2023-11-21T03:26:21;3.40;99.90
11772;DHT22;12556;55.748;13.194;2023-11-21T03:28:48;3.40;99.90
11772;DHT22;12556;55.748;13.194;2023-11-21T03:31:15;3.50;99.90
11772;DHT22;12556;55.748;13.194;2023-11-21T03:33:45;3.50;99.90
11772;DHT22;12556;55.748;13.194;2023-11-21T03:36:13;3.50;99.90
11772;DHT22;12556;55.748;13.194;2023-11-21T03:38:41;3.50;99.90
11772;DHT22;12556;55.748;13.194;2023-11-21T03:41:08;3.50;99.90
11772;DHT22;12556;55.748;13.194;2023-11-21T03:43:36;3.50;99.90
11772;DHT22;12556;55.748;13.194;2023-11-21T03:46:03;3.50;99.90
11772;DHT22;12556;55.748;13.194;2023-11-21T03:48:29;3.50;99.90
11772;DHT22;12556;55.748;13.194;2023-11-21T03:50:59;3.50;99.90
11772;DHT22;12556;55.748;13.194;2023-11-21T03:53:25;3.50;99.90
11772;DHT22;12556;55.748;13.194;2023-11-21T03:55:52;3.50;99.90
11772;DHT22;12556;55.748;13.194;2023-11-21T03:58:19;3.50;99.90
11772;DHT22;12556;55.748;13.194;2023-11-21T04:00:46;3.50;99.90
11772;DHT22;12556;55.748;13.194;2023-11-21T04:03:14;3.50;99.90
11772;DHT22;12556;55.748;13.194;2023-11-21T04:05:41;3.50;99.90
11772;DHT22;12556;55.748;13.194;2023-11-21T04:08:09;3.50;99.90
11772;DHT22;12556;55.748;13.194;2023-11-21T04:10:36;3.50;99.90
11772;DHT22;12556;55.748;13.194;2023-11-21T04:13:05;3.50;99.90
11772;DHT22;12556;55.748;13.194;2023-11-21T04:15:32;3.50;99.90
11772;DHT22;12556;55.748;13.194;2023-11-21T04:17:58;3.50;99.90
11772;DHT22;12556;55.748;13.194;2023-11-21T04:20:25;3.50;99.90
11772;DHT22;12556;55.748;13.194;2023-11-21T04:22:52;3.50;99.90
11772;DHT22;12556;55.748;13.194;2023-11-21T04:25:20;3.50;99.90
11772;DHT22;12556;55.748;13.194;2023-11-21T04:27:48;3.50;99.90
11772;DHT22;12556;55.748;13.194;2023-11-21T04:30:15;3.50;99.90
11772;DHT22;12556;55.748;13.194;2023-11-21T04:32:42;3.50;99.90
11772;DHT22;12556;55.748;13.194;2023-11-21T04:35:09;3.60;99.90
11772;DHT22;12556;55.748;13.194;2023-11-21T04:37:36;3.60;99.90
11772;DHT22;12556;55.748;13.194;2023-11-21T04:40:04;3.60;99.90
11772;DHT22;12556;55.748;13.194;2023-11-21T04:42:34;3.60;99.90
11772;DHT22;12556;55.748;13.194;2023-11-21T04:45:01;3.60;99.90
11772;DHT22;12556;55.748;13.194;2023-11-21T04:47:31;3.60;99.90
11772;DHT22;12556;55.748;13.194;2023-11-21T04:49:58;3.60;99.90
11772;DHT22;12556;55.748;13.194;2023-11-21T04:52:25;3.60;99.90
11772;DHT22;12556;55.748;13.194;2023-11-21T04:54:52;3.60;99.90
11772;DHT22;12556;55.748;13.194;2023-11-21T04:57:20;3.70;99.90
11772;DHT22;12556;55.748;13.194;2023-11-21T04:59:48;3.70;99.90
11772;DHT22;12556;55.748;13.194;2023-11-21T05:02:16;3.70;99.90
11772;DHT22;12556;55.748;13.194;2023-11-21T05:04:44;3.70;99.90
11772;DHT22;12556;55.748;13.194;2023-11-21T05:07:11;3.70;99.90
11772;DHT22;12556;55.748;13.194;2023-11-21T05:09:41;3.70;99.90
11772;DHT22;12556;55.748;13.194;2023-11-21T05:12:09;3.70;99.90
11772;DHT22;12556;55.748;13.194;2023-11-21T05:14:37;3.70;99.90
11772;DHT22;12556;55.748;13.194;2023-11-21T05:17:05;3.70;99.90
11772;DHT22;12556;55.748;13.194;2023-11-21T05:19:33;3.70;99.90
11772;DHT22;12556;55.748;13.194;2023-11-21T05:22:01;3.70;99.90
11772;DHT22;12556;55.748;13.194;2023-11-21T05:24:28;3.60;99.90
11772;DHT22;12556;55.748;13.194;2023-11-21T05:26:54;3.70;99.90
11772;DHT22;12556;55.748;13.194;2023-11-21T05:29:22;3.60;99.90
11772;DHT22;12556;55.748;13.194;2023-11-21T05:31:49;3.70;99.90
11772;DHT22;12556;55.748;13.194;2023-11-21T05:34:18;3.70;99.90
11772;DHT22;12556;55.748;13.194;2023-11-21T05:36:46;3.70;99.90
11772;DHT22;12556;55.748;13.194;2023-11-21T05:39:14;3.70;99.90
11772;DHT22;12556;55.748;13.194;2023-11-21T05:41:42;3.60;99.90
11772;DHT22;12556;55.748;13.194;2023-11-21T05:44:09;3.70;99.90
11772;DHT22;12556;55.748;13.194;2023-11-21T05:46:36;3.60;99.90
11772;DHT22;12556;55.748;13.194;2023-11-21T05:49:03;3.60;99.90
11772;DHT22;12556;55.748;13.194;2023-11-21T05:51:31;3.60;99.90
11772;DHT22;12556;55.748;13.194;2023-11-21T05:53:58;3.60;99.90
11772;DHT22;12556;55.748;13.194;2023-11-21T05:56:25;3.60;99.90
11772;DHT22;12556;55.748;13.194;2023-11-21T05:58:51;3.60;99.90
11772;DHT22;12556;55.748;13.194;2023-11-21T06:01:18;3.60;99.90
11772;DHT22;12556;55.748;13.194;2023-11-21T06:03:45;3.60;99.90
11772;DHT22;12556;55.748;13.194;2023-11-21T06:06:12;3.60;99.90
11772;DHT22;12556;55.748;13.194;2023-11-21T06:08:40;3.70;99.90
11772;DHT22;12556;55.748;13.194;2023-11-21T06:11:08;3.60;99.90
11772;DHT22;12556;55.748;13.194;2023-11-21T06:13:37;3.60;99.90
11772;DHT22;12556;55.748;13.194;2023-11-21T06:16:04;3.70;99.90
11772;DHT22;12556;55.748;13.194;2023-11-21T06:18:31;3.70;99.90
11772;DHT22;12556;55.748;13.194;2023-11-21T06:20:58;3.70;99.90
11772;DHT22;12556;55.748;13.194;2023-11-21T06:23:26;3.70;99.90
11772;DHT22;12556;55.748;13.194;2023-11-21T06:25:54;3.70;99.90
11772;DHT22;12556;55.748;13.194;2023-11-21T06:28:21;3.70;99.90
11772;DHT22;12556;55.748;13.194;2023-11-21T06:30:48;3.70;99.90
11772;DHT22;12556;55.748;13.194;2023-11-21T06:33:16;3.70;99.90
11772;DHT22;12556;55.748;13.194;2023-11-21T06:35:43;3.60;99.90
11772;DHT22;12556;55.748;13.194;2023-11-21T06:38:10;3.70;99.90
11772;DHT22;12556;55.748;13.194;2023-11-21T06:40:37;3.60;99.90
11772;DHT22;12556;55.748;13.194;2023-11-21T06:43:05;3.60;99.90
11772;DHT22;12556;55.748;13.194;2023-11-21T06:45:34;3.60;99.90
11772;DHT22;12556;55.748;13.194;2023-11-21T06:48:01;3.60;99.90
11772;DHT22;12556;55.748;13.194;2023-11-21T06:50:28;3.60;99.90
11772;DHT22;12556;55.748;13.194;2023-11-21T06:52:55;3.60;99.90
11772;DHT22;12556;55.748;13.194;2023-11-21T06:55:22;3.60;99.90
11772;DHT22;12556;55.748;13.194;2023-11-21T06:57:49;3.60;99.90
11772;DHT22;12556;55.748;13.194;2023-11-21T07:00:19;3.50;99.90
11772;DHT22;12556;55.748;13.194;2023-11-21T07:02:45;3.60;99.90
11772;DHT22;12556;55.748;13.194;2023-11-21T07:05:12;3.50;99.90
11772;DHT22;12556;55.748;13.194;2023-11-21T07:07:40;3.60;99.90
11772;DHT22;12556;55.748;13.194;2023-11-21T07:10:07;3.50;99.90
11772;DHT22;12556;55.748;13.194;2023-11-21T07:12:34;3.50;99.90
11772;DHT22;12556;55.748;13.194;2023-11-21T07:15:01;3.50;99.90
11772;DHT22;12556;55.748;13.194;2023-11-21T07:17:32;3.50;99.90
11772;DHT22;12556;55.748;13.194;2023-11-21T07:20:01;3.50;99.90
11772;DHT22;12556;55.748;13.194;2023-11-21T07:22:28;3.50;99.90
11772;DHT22;12556;55.748;13.194;2023-11-21T07:24:55;3.50;99.90
11772;DHT22;12556;55.748;13.194;2023-11-21T07:27:23;3.40;99.90
11772;DHT22;12556;55.748;13.194;2023-11-21T07:29:50;3.40;99.90
11772;DHT22;12556;55.748;13.194;2023-11-21T07:32:17;3.40;99.90
11772;DHT22;12556;55.748;13.194;2023-11-21T07:34:45;3.30;99.90
11772;DHT22;12556;55.748;13.194;2023-11-21T07:37:12;3.30;99.90
11772;DHT22;12556;55.748;13.194;2023-11-21T07:39:38;3.20;99.90
11772;DHT22;12556;55.748;13.194;2023-11-21T07:42:07;3.20;99.90
11772;DHT22;12556;55.748;13.194;2023-11-21T07:44:34;3.20;99.90
11772;DHT22;12556;55.748;13.194;2023-11-21T07:47:01;3.20;99.90
11772;DHT22;12556;55.748;13.194;2023-11-21T07:49:28;4.10;99.90
11772;DHT22;12556;55.748;13.194;2023-11-21T07:51:56;3.30;99.90
11772;DHT22;12556;55.748;13.194;2023-11-21T07:54:23;3.30;99.90
11772;DHT22;12556;55.748;13.194;2023-11-21T07:56:50;3.30;99.90
11772;DHT22;12556;55.748;13.194;2023-11-21T07:59:16;3.30;99.90
11772;DHT22;12556;55.748;13.194;2023-11-21T08:01:44;3.30;99.90
11772;DHT22;12556;55.748;13.194;2023-11-21T08:04:11;3.30;99.90
11772;DHT22;12556;55.748;13.194;2023-11-21T08:06:38;3.40;99.90
11772;DHT22;12556;55.748;13.194;2023-11-21T08:09:07;3.40;99.90
11772;DHT22;12556;55.748;13.194;2023-11-21T08:11:34;3.40;99.90
11772;DHT22;12556;55.748;13.194;2023-11-21T08:14:01;3.40;99.90
11772;DHT22;12556;55.748;13.194;2023-11-21T08:16:28;3.40;99.90
11772;DHT22;12556;55.748;13.194;2023-11-21T08:18:55;3.50;99.90
11772;DHT22;12556;55.748;13.194;2023-11-21T08:21:22;3.50;99.90
11772;DHT22;12556;55.748;13.194;2023-11-21T08:23:50;3.50;99.90
11772;DHT22;12556;55.748;13.194;2023-11-21T08:26:21;3.40;99.90
11772;DHT22;12556;55.748;13.194;2023-11-21T08:28:48;3.40;99.90
11772;DHT22;12556;55.748;13.194;2023-11-21T08:31:15;3.50;99.90
11772;DHT22;12556;55.748;13.194;2023-11-21T08:33:41;3.50;99.90
11772;DHT22;12556;55.748;13.194;2023-11-21T08:36:09;3.50;99.90
11772;DHT22;12556;55.748;13.194;2023-11-21T08:38:37;3.50;99.90
11772;DHT22;12556;55.748;13.194;2023-11-21T08:41:05;3.50;99.90
11772;DHT22;12556;55.748;13.194;2023-11-21T08:43:35;3.50;99.90
11772;DHT22;12556;55.748;13.194;2023-11-21T08:46:05;3.50;99.90
11772;DHT22;12556;55.748;13.194;2023-11-21T08:48:34;2.80;99.90
11772;DHT22;12556;55.748;13.194;2023-11-21T08:51:01;3.60;99.90
11772;DHT22;12556;55.748;13.194;2023-11-21T08:53:29;3.60;99.90
11772;DHT22;12556;55.748;13.194;2023-11-21T08:55:56;3.60;99.90
11772;DHT22;12556;55.748;13.194;2023-11-21T08:58:23;3.60;99.90
11772;DHT22;12556;55.748;13.194;2023-11-21T09:00:51;3.70;99.90
11772;DHT22;12556;55.748;13.194;2023-11-21T09:03:18;3.70;99.90
11772;DHT22;12556;55.748;13.194;2023-11-21T09:05:44;3.80;99.90
11772;DHT22;12556;55.748;13.194;2023-11-21T09:08:11;3.80;99.90
11772;DHT22;12556;55.748;13.194;2023-11-21T09:10:38;3.90;99.90
11772;DHT22;12556;55.748;13.194;2023-11-21T09:13:05;3.90;99.90
11772;DHT22;12556;55.748;13.194;2023-11-21T09:15:36;3.90;99.90
11772;DHT22;12556;55.748;13.194;2023-11-21T09:18:04;3.90;99.90
11772;DHT22;12556;55.748;13.194;2023-11-21T09:20:31;3.80;99.90
11772;DHT22;12556;55.748;13.194;2023-11-21T09:22:58;3.80;99.90
11772;DHT22;12556;55.748;13.194;2023-11-21T09:25:25;3.80;99.90
11772;DHT22;12556;55.748;13.194;2023-11-21T09:27:54;3.80;99.90
11772;DHT22;12556;55.748;13.194;2023-11-21T09:30:21;3.80;99.90
11772;DHT22;12556;55.748;13.194;2023-11-21T09:32:50;3.80;99.90
11772;DHT22;12556;55.748;13.194;2023-11-21T09:35:18;3.80;99.90
11772;DHT22;12556;55.748;13.194;2023-11-21T09:37:45;3.80;99.90
11772;DHT22;12556;55.748;13.194;2023-11-21T09:40:12;3.80;99.90
11772;DHT22;12556;55.748;13.194;2023-11-21T09:42:48;3.80;99.90
11772;DHT22;12556;55.748;13.194;2023-11-21T09:45:21;3.80;99.90
11772;DHT22;12556;55.748;13.194;2023-11-21T09:47:49;3.80;99.90
11772;DHT22;12556;55.748;13.194;2023-11-21T09:50:20;3.80;99.90
11772;DHT22;12556;55.748;13.194;2023-11-21T09:52:55;3.80;99.90
11772;DHT22;12556;55.748;13.194;2023-11-21T09:55:27;3.80;99.90
11772;DHT22;12556;55.748;13.194;2023-11-21T09:57:56;3.90;99.90
11772;DHT22;12556;55.748;13.194;2023-11-21T10:00:23;3.80;99.90
11772;DHT22;12556;55.748;13.194;2023-11-21T10:02:51;3.80;99.90
11772;DHT22;12556;55.748;13.194;2023-11-21T10:05:20;3.80;99.90
11772;DHT22;12556;55.748;13.194;2023-11-21T10:07:49;3.80;99.90
11772;DHT22;12556;55.748;13.194;2023-11-21T10:10:18;3.80;99.90
11772;DHT22;12556;55.748;13.194;2023-11-21T10:12:49;3.70;99.90
11772;DHT22;12556;55.748;13.194;2023-11-21T10:15:20;3.80;99.90
11772;DHT22;12556;55.748;13.194;2023-11-21T10:17:48;3.70;99.90
11772;DHT22;12556;55.748;13.194;2023-11-21T10:20:16;3.70;99.90
11772;DHT22;12556;55.748;13.194;2023-11-21T10:22:44;3.70;99.90
11772;DHT22;12556;55.748;13.194;2023-11-21T10:25:12;3.70;99.90
11772;DHT22;12556;55.748;13.194;2023-11-21T10:27:40;3.70;99.90
11772;DHT22;12556;55.748;13.194;2023-11-21T10:30:09;3.70;99.90
11772;DHT22;12556;55.748;13.194;2023-11-21T10:32:37;3.70;99.90
11772;DHT22;12556;55.748;13.194;2023-11-21T10:35:06;3.70;99.90
11772;DHT22;12556;55.748;13.194;2023-11-21T10:37:36;3.70;99.90
11772;DHT22;12556;55.748;13.194;2023-11-21T10:40:08;3.70;99.90
11772;DHT22;12556;55.748;13.194;2023-11-21T10:42:37;3.70;99.90
11772;DHT22;12556;55.748;13.194;2023-11-21T10:45:04;3.70;99.90
11772;DHT22;12556;55.748;13.194;2023-11-21T10:47:38;3.70;99.90
11772;DHT22;12556;55.748;13.194;2023-11-21T10:50:05;3.70;99.90
11772;DHT22;12556;55.748;13.194;2023-11-21T10:52:36;3.80;99.90
11772;DHT22;12556;55.748;13.194;2023-11-21T10:55:16;3.80;99.90
11772;DHT22;12556;55.748;13.194;2023-11-21T10:57:43;3.80;99.90
11772;DHT22;12556;55.748;13.194;2023-11-21T11:00:12;3.80;99.90
11772;DHT22;12556;55.748;13.194;2023-11-21T11:02:39;3.80;99.90
11772;DHT22;12556;55.748;13.194;2023-11-21T11:05:06;3.80;99.90
11772;DHT22;12556;55.748;13.194;2023-11-21T11:07:38;3.90;99.90
11772;DHT22;12556;55.748;13.194;2023-11-21T11:10:08;3.80;99.90
11772;DHT22;12556;55.748;13.194;2023-11-21T11:12:39;3.90;99.90
11772;DHT22;12556;55.748;13.194;2023-11-21T11:15:07;3.90;99.90
11772;DHT22;12556;55.748;13.194;2023-11-21T11:17:37;3.90;99.90
11772;DHT22;12556;55.748;13.194;2023-11-21T11:20:07;3.90;99.90
11772;DHT22;12556;55.748;13.194;2023-11-21T11:22:46;3.90;99.90
11772;DHT22;12556;55.748;13.194;2023-11-21T11:25:30;4.00;99.90
11772;DHT22;12556;55.748;13.194;2023-11-21T11:28:04;4.00;99.90
11772;DHT22;12556;55.748;13.194;2023-11-21T11:30:41;3.90;99.90
11772;DHT22;12556;55.748;13.194;2023-11-21T11:33:19;4.00;99.90
11772;DHT22;12556;55.748;13.194;2023-11-21T11:35:54;3.90;99.90
11772;DHT22;12556;55.748;13.194;2023-11-21T11:38:23;3.90;99.90
11772;DHT22;12556;55.748;13.194;2023-11-21T11:40:54;4.00;99.90
11772;DHT22;12556;55.748;13.194;2023-11-21T11:43:27;4.00;99.90
11772;DHT22;12556;55.748;13.194;2023-11-21T11:45:55;4.00;99.90
11772;DHT22;12556;55.748;13.194;2023-11-21T11:48:24;4.00;99.90
11772;DHT22;12556;55.748;13.194;2023-11-21T11:51:05;4.00;99.90
11772;DHT22;12556;55.748;13.194;2023-11-21T11:53:39;4.00;99.90
11772;DHT22;12556;55.748;13.194;2023-11-21T11:56:25;4.00;99.90
11772;DHT22;12556;55.748;13.194;2023-11-21T11:58:53;4.00;99.90
11772;DHT22;12556;55.748;13.194;2023-11-21T12:01:21;4.00;99.90
11772;DHT22;12556;55.748;13.194;2023-11-21T12:04:24;4.00;99.90
11772;DHT22;12556;55.748;13.194;2023-11-21T12:06:59;4.00;99.90
11772;DHT22;12556;55.748;13.194;2023-11-21T12:09:28;4.00;99.90
11772;DHT22;12556;55.748;13.194;2023-11-21T12:11:58;4.00;99.90
11772;DHT22;12556;55.748;13.194;2023-11-21T12:14:25;4.10;99.90
11772;DHT22;12556;55.748;13.194;2023-11-21T12:16:53;4.10;99.90
11772;DHT22;12556;55.748;13.194;2023-11-21T12:19:20;4.10;99.90
11772;DHT22;12556;55.748;13.194;2023-11-21T12:21:48;4.10;99.90
11772;DHT22;12556;55.748;13.194;2023-11-21T12:24:16;4.20;99.90
11772;DHT22;12556;55.748;13.194;2023-11-21T12:26:43;4.20;99.90
11772;DHT22;12556;55.748;13.194;2023-11-21T12:29:12;4.20;99.90
11772;DHT22;12556;55.748;13.194;2023-11-21T12:31:38;4.10;99.90
11772;DHT22;12556;55.748;13.194;2023-11-21T12:34:06;4.20;99.90
11772;DHT22;12556;55.748;13.194;2023-11-21T12:36:34;4.10;99.90
11772;DHT22;12556;55.748;13.194;2023-11-21T12:39:02;4.10;99.90
11772;DHT22;12556;55.748;13.194;2023-11-21T12:41:29;4.20;99.90
11772;DHT22;12556;55.748;13.194;2023-11-21T12:43:57;4.20;99.90
11772;DHT22;12556;55.748;13.194;2023-11-21T12:46:25;4.20;99.90
11772;DHT22;12556;55.748;13.194;2023-11-21T12:48:57;4.20;99.90
11772;DHT22;12556;55.748;13.194;2023-11-21T12:51:24;4.20;99.90
11772;DHT22;12556;55.748;13.194;2023-11-21T12:53:51;4.20;99.90
11772;DHT22;12556;55.748;13.194;2023-11-21T12:56:18;4.10;99.90
11772;DHT22;12556;55.748;13.194;2023-11-21T12:58:48;4.10;99.90
11772;DHT22;12556;55.748;13.194;2023-11-21T13:01:16;4.10;99.90
11772;DHT22;12556;55.748;13.194;2023-11-21T13:03:47;4.10;99.90
11772;DHT22;12556;55.748;13.194;2023-11-21T13:06:17;4.10;99.90
11772;DHT22;12556;55.748;13.194;2023-11-21T13:08:44;4.00;99.90
11772;DHT22;12556;55.748;13.194;2023-11-21T13:11:12;4.00;99.90
11772;DHT22;12556;55.748;13.194;2023-11-21T13:13:41;4.10;99.90
11772;DHT22;12556;55.748;13.194;2023-11-21T13:16:09;4.10;99.90
11772;DHT22;12556;55.748;13.194;2023-11-21T13:18:36;4.10;99.90
11772;DHT22;12556;55.748;13.194;2023-11-21T13:21:08;4.10;99.90
11772;DHT22;12556;55.748;13.194;2023-11-21T13:23:39;4.10;99.90
11772;DHT22;12556;55.748;13.194;2023-11-21T13:26:07;4.10;99.90
11772;DHT22;12556;55.748;13.194;2023-11-21T13:28:35;4.00;99.90
11772;DHT22;12556;55.748;13.194;2023-11-21T13:31:04;4.00;99.90
11772;DHT22;12556;55.748;13.194;2023-11-21T13:33:41;4.00;99.90
11772;DHT22;12556;55.748;13.194;2023-11-21T13:36:14;4.00;99.90
11772;DHT22;12556;55.748;13.194;2023-11-21T13:38:48;4.00;99.90
11772;DHT22;12556;55.748;13.194;2023-11-21T13:41:14;3.90;99.90
11772;DHT22;12556;55.748;13.194;2023-11-21T13:43:43;4.00;99.90
11772;DHT22;12556;55.748;13.194;2023-11-21T13:46:16;4.00;99.90
11772;DHT22;12556;55.748;13.194;2023-11-21T13:48:47;4.00;99.90
11772;DHT22;12556;55.748;13.194;2023-11-21T13:51:17;3.90;99.90
11772;DHT22;12556;55.748;13.194;2023-11-21T13:53:46;3.90;99.90
11772;DHT22;12556;55.748;13.194;2023-11-21T13:56:15;3.90;99.90
11772;DHT22;12556;55.748;13.194;2023-11-21T13:58:46;3.80;99.90
11772;DHT22;12556;55.748;13.194;2023-11-21T14:01:17;3.80;99.90
11772;DHT22;12556;55.748;13.194;2023-11-21T14:04:04;3.70;99.90
11772;DHT22;12556;55.748;13.194;2023-11-21T14:06:46;3.70;99.90
11772;DHT22;12556;55.748;13.194;2023-11-21T14:09:14;3.60;99.90
11772;DHT22;12556;55.748;13.194;2023-11-21T14:11:49;3.50;99.90
11772;DHT22;12556;55.748;13.194;2023-11-21T14:14:17;3.50;99.90
11772;DHT22;12556;55.748;13.194;2023-11-21T14:16:43;3.40;99.90
11772;DHT22;12556;55.748;13.194;2023-11-21T14:19:11;3.30;99.90
11772;DHT22;12556;55.748;13.194;2023-11-21T14:21:41;3.30;99.90
11772;DHT22;12556;55.748;13.194;2023-11-21T14:24:11;3.20;99.90
11772;DHT22;12556;55.748;13.194;2023-11-21T14:26:40;3.20;99.90
11772;DHT22;12556;55.748;13.194;2023-11-21T14:29:07;3.10;99.90
11772;DHT22;12556;55.748;13.194;2023-11-21T14:31:36;3.00;99.90
11772;DHT22;12556;55.748;13.194;2023-11-21T14:34:03;3.00;99.90
11772;DHT22;12556;55.748;13.194;2023-11-21T14:36:32;3.00;99.90
11772;DHT22;12556;55.748;13.194;2023-11-21T14:38:59;2.90;99.90
11772;DHT22;12556;55.748;13.194;2023-11-21T14:41:27;2.90;99.90
11772;DHT22;12556;55.748;13.194;2023-11-21T14:43:54;2.80;99.90
11772;DHT22;12556;55.748;13.194;2023-11-21T14:46:22;2.80;99.90
11772;DHT22;12556;55.748;13.194;2023-11-21T14:48:49;2.70;99.90
11772;DHT22;12556;55.748;13.194;2023-11-21T14:51:24;2.60;99.90
11772;DHT22;12556;55.748;13.194;2023-11-21T14:53:56;2.60;99.90
11772;DHT22;12556;55.748;13.194;2023-11-21T14:56:27;2.50;99.90
11772;DHT22;12556;55.748;13.194;2023-11-21T14:58:57;2.50;99.90
11772;DHT22;12556;55.748;13.194;2023-11-21T15:01:25;2.40;99.90
11772;DHT22;12556;55.748;13.194;2023-11-21T15:04:08;2.40;99.90
11772;DHT22;12556;55.748;13.194;2023-11-21T15:06:40;2.30;99.90
11772;DHT22;12556;55.748;13.194;2023-11-21T15:09:08;2.20;99.90
11772;DHT22;12556;55.748;13.194;2023-11-21T15:12:04;2.20;99.90
11772;DHT22;12556;55.748;13.194;2023-11-21T15:14:40;2.10;99.90
11772;DHT22;12556;55.748;13.194;2023-11-21T15:17:08;2.10;99.90
11772;DHT22;12556;55.748;13.194;2023-11-21T15:19:35;2.10;99.90
11772;DHT22;12556;55.748;13.194;2023-11-21T15:22:02;1.70;99.90
11772;DHT22;12556;55.748;13.194;2023-11-21T15:24:30;2.00;99.90
11772;DHT22;12556;55.748;13.194;2023-11-21T15:26:57;2.00;99.90
11772;DHT22;12556;55.748;13.194;2023-11-21T15:29:26;2.00;99.90
11772;DHT22;12556;55.748;13.194;2023-11-21T15:31:53;1.90;99.90
11772;DHT22;12556;55.748;13.194;2023-11-21T15:34:22;1.90;99.90
11772;DHT22;12556;55.748;13.194;2023-11-21T15:36:49;1.90;99.90
11772;DHT22;12556;55.748;13.194;2023-11-21T15:39:19;1.80;99.90